Roherstown, Pennsylvania
Current Conditions -  °F | °C
As of 6:53 AM on Friday 28 Nov 2014 (Local Time) from KLNS Reporting Station
Clear Clear  
Wind Chill: -7°   Ceiling: Unl
Heat Index: -2°   Visibility: 10mi
Dew Point: -7°   Wind: 10mph
Humidity: 69%   Direction: 300°WNW
Pressure: 30.2"   Gusts: NA
Location:  40.0115°N, 76.3553°W
Report Text: KLNS 281153Z 30009KT 10SM CLR M02/M07 A3020 RMK AO2 SLP231 T10171067 10006 21028 53019
Loading
Personal Weather Stations






























Interactive Weather Map New forecast layout! Learn more

10-Day Weather Forecast

Advertisements
Track Severe Weather on mobile